Time;durP1;ratioP1;P1;durP2;ratioP2;P2;SDS_P1;SDS_P2;PMS_P1;PMS_P2;Temp;Humidity;BMP_temperature;BMP_pressure;BME280_temperature;BME280_humidity;BME280_pressure;Samples;Min_cycle;Max_cycle;Signal;HPM_P1;HPM_P2
2023/06/27 00:00:35;;;;;;;6.05;3.00;;;;;;;20.08;100.00;97965.50;5034501;28;20180;-56
2023/06/27 00:03:01;;;;;;;3.90;3.08;;;;;;;20.26;100.00;97987.88;5034353;28;20196;-56
2023/06/27 00:05:26;;;;;;;4.00;2.97;;;;;;;20.28;100.00;97979.81;5034415;28;20174;-56
2023/06/27 00:07:52;;;;;;;3.17;2.80;;;;;;;20.24;100.00;97989.03;5034363;28;20244;-56
2023/06/27 00:10:17;;;;;;;4.90;3.10;;;;;;;20.23;100.00;97977.69;5034016;28;20174;-56
2023/06/27 00:12:44;;;;;;;5.00;3.17;;;;;;;20.25;100.00;97980.97;5034261;28;20178;-56
2023/06/27 00:15:10;;;;;;;4.32;2.95;;;;;;;20.09;100.00;97954.81;5051468;28;20201;-56
2023/06/27 00:17:37;;;;;;;3.80;3.50;;;;;;;20.25;100.00;97977.53;5051634;28;20196;-56
2023/06/27 00:20:02;;;;;;;4.35;3.45;;;;;;;20.24;100.00;97978.53;5051535;28;20231;-56
2023/06/27 00:22:29;;;;;;;3.53;3.13;;;;;;;20.28;100.00;97987.69;5051484;28;20189;-56
2023/06/27 00:24:55;;;;;;;4.20;3.03;;;;;;;20.21;100.00;97971.81;5051445;28;20573;-56
2023/06/27 00:27:21;;;;;;;3.88;3.00;;;;;;;20.28;100.00;97978.00;5051519;28;20199;-56
2023/06/27 00:29:47;;;;;;;6.35;3.50;;;;;;;20.29;100.00;97979.63;5051428;28;20710;-57
2023/06/27 00:32:12;;;;;;;3.78;2.70;;;;;;;20.30;100.00;97980.44;5051392;28;20185;-57
2023/06/27 00:34:38;;;;;;;4.72;3.20;;;;;;;20.30;100.00;97983.06;5051331;28;20185;-56
2023/06/27 00:37:03;;;;;;;4.95;3.50;;;;;;;20.27;100.00;97981.63;5051300;28;20837;-57
2023/06/27 00:39:29;;;;;;;5.45;2.97;;;;;;;20.19;100.00;97962.47;5051167;28;20189;-56
2023/06/27 00:41:54;;;;;;;6.43;3.33;;;;;;;20.07;100.00;97953.34;5031050;28;20190;-57
2023/06/27 00:44:20;;;;;;;6.22;3.28;;;;;;;20.17;100.00;97982.84;5031226;28;20213;-57
2023/06/27 00:46:48;;;;;;;5.13;3.72;;;;;;;19.95;100.00;97965.22;5031177;28;20763;-56
2023/06/27 00:49:16;;;;;;;3.88;3.33;;;;;;;20.01;100.00;97981.13;5031125;28;20564;-57
2023/06/27 00:51:42;;;;;;;3.83;3.22;;;;;;;20.01;100.00;97981.13;5030651;28;20596;-56
2023/06/27 00:54:08;;;;;;;5.97;3.45;;;;;;;20.12;100.00;97988.59;5031372;28;20725;-56
2023/06/27 00:56:35;;;;;;;6.72;3.50;;;;;;;19.85;100.00;97962.84;5031001;28;20237;-56
2023/06/27 00:59:01;;;;;;;3.83;3.10;;;;;;;20.03;100.00;97992.25;5031010;28;20699;-57
2023/06/27 01:01:30;;;;;;;7.57;4.00;;;;;;;19.89;100.00;97998.28;5030973;28;20186;-56
2023/06/27 01:03:55;;;;;;;10.77;3.08;;;;;;;19.89;100.00;97976.44;5030735;28;20198;-56
2023/06/27 01:06:49;;;;;;;5.80;3.22;;;;;;;19.86;100.00;97997.78;5030834;28;20193;-56
2023/06/27 01:09:28;;;;;;;4.10;3.10;;;;;;;19.99;100.00;97990.97;5010930;28;20218;-57
2023/06/27 01:12:05;;;;;;;5.72;3.45;;;;;;;20.04;100.00;97987.84;5012752;28;20256;-57
2023/06/27 01:14:33;;;;;;;5.07;3.28;;;;;;;19.94;100.00;97960.97;5030999;28;20208;-57
2023/06/27 01:16:59;;;;;;;3.35;3.03;;;;;;;19.94;100.00;97966.22;5030665;28;20237;-56
2023/06/27 01:19:27;;;;;;;6.18;3.42;;;;;;;20.10;100.00;97992.44;5030575;28;20765;-56
2023/06/27 01:22:03;;;;;;;6.97;2.88;;;;;;;19.77;100.00;97962.88;5030561;28;20268;-56
2023/06/27 01:24:29;;;;;;;3.80;3.22;;;;;;;19.97;100.00;97986.88;5030556;28;20316;-57
2023/06/27 01:26:55;;;;;;;4.00;3.70;;;;;;;19.76;100.00;97955.19;5030366;28;20735;-57
2023/06/27 01:29:20;;;;;;;3.70;3.22;;;;;;;19.74;100.00;97978.16;5030459;28;20174;-57
2023/06/27 01:31:49;;;;;;;5.07;3.35;;;;;;;19.81;100.00;97989.63;5030349;28;20714;-56
2023/06/27 01:34:25;;;;;;;4.57;2.88;;;;;;;19.77;100.00;97983.06;5010325;28;20704;-57
2023/06/27 01:36:58;;;;;;;4.88;3.13;;;;;;;19.87;100.00;97999.44;5010525;28;20217;-56
2023/06/27 01:39:40;;;;;;;5.03;3.08;;;;;;;19.81;100.00;97987.00;5010514;28;20190;-57
2023/06/27 01:42:18;;;;;;;5.60;3.10;;;;;;;19.62;100.00;97982.16;5010442;28;20210;-57
2023/06/27 01:44:46;;;;;;;4.15;3.50;;;;;;;19.52;100.00;97963.19;5010460;28;20186;-57
2023/06/27 01:47:13;;;;;;;7.07;3.53;;;;;;;19.33;100.00;97964.41;5028353;28;20272;-57
2023/06/27 01:49:38;;;;;;;6.15;3.60;;;;;;;19.29;100.00;97960.47;5029970;28;20284;-56
2023/06/27 01:52:05;;;;;;;7.35;3.67;;;;;;;19.33;100.00;97976.69;5030026;28;20189;-57
2023/06/27 01:54:30;;;;;;;3.92;3.20;;;;;;;19.37;100.00;97978.84;5029929;28;20200;-57
2023/06/27 01:56:55;;;;;;;4.10;3.78;;;;;;;19.33;100.00;97974.06;5029860;28;20292;-56
2023/06/27 01:59:21;;;;;;;6.78;3.60;;;;;;;19.27;100.00;97966.88;5029898;28;20184;-56
2023/06/27 02:01:46;;;;;;;6.55;3.20;;;;;;;19.38;100.00;97963.91;5029919;28;20174;-56
2023/06/27 02:04:12;;;;;;;5.82;3.60;;;;;;;19.44;100.00;97966.66;5026160;28;20237;-56
2023/06/27 02:06:37;;;;;;;4.13;3.83;;;;;;;19.51;100.00;97982.53;5031936;28;20174;-56
2023/06/27 02:09:04;;;;;;;4.57;3.35;;;;;;;19.58;100.00;97980.88;5032152;28;20173;-57
2023/06/27 02:11:29;;;;;;;9.35;3.28;;;;;;;19.63;100.00;97971.47;5032027;28;20231;-56
2023/06/27 02:13:55;;;;;;;7.55;3.47;;;;;;;19.55;100.00;97953.16;5032077;28;20594;-58
2023/06/27 02:16:20;;;;;;;6.32;3.47;;;;;;;19.76;100.00;97990.13;5032017;28;20205;-56
2023/06/27 02:18:46;;;;;;;3.25;3.05;;;;;;;19.62;100.00;97967.22;5032058;28;20643;-56
2023/06/27 02:21:11;;;;;;;6.38;3.80;;;;;;;19.63;100.00;97974.09;5032036;28;20656;-56
2023/06/27 02:23:37;;;;;;;5.32;3.15;;;;;;;19.79;100.00;97994.19;5049301;28;20330;-56
2023/06/27 02:26:03;;;;;;;4.80;3.58;;;;;;;19.63;100.00;97954.91;5049440;28;20189;-56
2023/06/27 02:28:29;;;;;;;3.25;2.88;;;;;;;19.67;100.00;97967.53;5049449;28;20287;-57
2023/06/27 02:30:55;;;;;;;6.50;3.35;;;;;;;19.64;100.00;97980.19;5049395;28;20256;-56
2023/06/27 02:33:20;;;;;;;9.05;3.08;;;;;;;19.52;100.00;97964.00;5049324;28;20188;-56
2023/06/27 02:35:46;;;;;;;6.18;3.47;;;;;;;19.56;100.00;97985.47;5009482;28;20213;-56
2023/06/27 02:38:11;;;;;;;3.50;3.20;;;;;;;19.49;100.00;97989.75;5009695;28;20187;-56
2023/06/27 02:40:36;;;;;;;4.40;3.55;;;;;;;19.55;100.00;97982.03;5009644;28;20178;-56
2023/06/27 02:43:02;;;;;;;5.30;3.28;;;;;;;19.52;100.00;97989.44;5009631;28;20211;-56
2023/06/27 02:45:27;;;;;;;4.18;3.38;;;;;;;19.55;100.00;97997.78;5009663;28;20183;-56
2023/06/27 02:47:53;;;;;;;3.40;3.10;;;;;;;19.54;100.00;97975.16;5009544;28;20281;-56
2023/06/27 02:50:18;;;;;;;3.45;2.72;;;;;;;19.69;100.00;97998.88;5009615;28;20189;-56
2023/06/27 02:52:43;;;;;;;3.22;2.90;;;;;;;19.74;100.00;97999.16;5009556;28;20178;-56
2023/06/27 02:55:09;;;;;;;3.85;3.40;;;;;;;19.84;100.00;97999.75;5009440;28;20182;-56
2023/06/27 02:57:34;;;;;;;5.53;3.42;;;;;;;19.86;100.00;97982.00;5009556;28;20270;-56
2023/06/27 03:00:00;;;;;;;6.50;3.22;;;;;;;19.92;100.00;97986.56;5009537;28;20191;-56
2023/06/27 03:02:25;;;;;;;4.25;3.53;;;;;;;19.83;100.00;97980.59;5009379;28;20763;-56
2023/06/27 03:04:51;;;;;;;5.05;2.85;;;;;;;19.87;100.00;97976.59;5009507;28;20174;-56
2023/06/27 03:07:17;;;;;;;4.68;2.83;;;;;;;20.03;100.00;98010.66;5009499;28;20271;-56
2023/06/27 03:09:42;;;;;;;3.95;3.22;;;;;;;20.09;100.00;98004.72;5009417;28;20699;-56
2023/06/27 03:12:08;;;;;;;4.55;3.33;;;;;;;20.08;100.00;98005.72;5010367;28;20179;-56
2023/06/27 03:14:34;;;;;;;4.00;3.15;;;;;;;20.13;100.00;98010.44;5031912;28;20182;-56
2023/06/27 03:16:59;;;;;;;4.82;3.33;;;;;;;20.11;100.00;97996.69;5035264;28;20624;-56
2023/06/27 03:19:25;;;;;;;4.68;3.42;;;;;;;20.02;100.00;97995.06;5035302;28;20176;-56
2023/06/27 03:21:50;;;;;;;5.75;3.20;;;;;;;20.04;100.00;97990.47;5035211;28;20174;-56
2023/06/27 03:24:15;;;;;;;3.75;3.42;;;;;;;20.27;100.00;98007.06;5035199;28;20170;-56
2023/06/27 03:26:41;;;;;;;4.32;3.97;;;;;;;20.38;100.00;98019.78;5035134;28;20182;-56
2023/06/27 03:29:06;;;;;;;5.05;3.90;;;;;;;20.37;100.00;97997.97;5035114;28;20166;-56
2023/06/27 03:31:31;;;;;;;4.20;3.63;;;;;;;20.37;100.00;97986.63;5035061;28;20231;-56
2023/06/27 03:33:59;;;;;;;4.78;4.32;;;;;;;20.59;100.00;98018.16;5034729;28;20170;-56
2023/06/27 03:36:25;;;;;;;4.28;3.88;;;;;;;20.61;100.00;97989.06;5034889;28;20205;-56
2023/06/27 03:38:51;;;;;;;5.72;3.70;;;;;;;20.83;100.00;98017.97;5034962;28;20539;-56
2023/06/27 03:41:17;;;;;;;4.80;3.33;;;;;;;20.63;100.00;97984.44;5052205;28;20713;-56
2023/06/27 03:43:42;;;;;;;3.80;3.40;;;;;;;20.72;100.00;98020.19;5052312;28;20264;-56
2023/06/27 03:46:12;;;;;;;6.22;3.47;;;;;;;20.63;100.00;98013.38;5052024;28;20270;-56
2023/06/27 03:48:37;;;;;;;4.85;3.00;;;;;;;20.51;100.00;98010.31;5052217;28;20185;-56
2023/06/27 03:51:03;;;;;;;5.90;3.45;;;;;;;20.32;100.00;97988.97;5052157;28;20193;-56
2023/06/27 03:53:28;;;;;;;4.22;2.80;;;;;;;20.35;100.00;98012.28;5052072;28;20272;-56
2023/06/27 03:55:54;;;;;;;4.97;3.30;;;;;;;20.30;100.00;98010.19;5051938;28;20661;-56
2023/06/27 03:58:19;;;;;;;3.13;2.85;;;;;;;20.12;100.00;97982.56;5052132;28;20196;-56
2023/06/27 04:00:45;;;;;;;5.20;3.55;;;;;;;20.24;100.00;98002.16;5052237;28;20181;-56
2023/06/27 04:03:10;;;;;;;3.58;3.28;;;;;;;20.18;100.00;97993.19;5051728;28;20229;-56
2023/06/27 04:05:35;;;;;;;5.82;3.75;;;;;;;20.30;100.00;97988.31;5051922;28;20192;-56
2023/06/27 04:08:01;;;;;;;5.22;3.15;;;;;;;20.58;100.00;98018.34;5051870;28;20272;-56
2023/06/27 04:10:26;;;;;;;3.30;2.97;;;;;;;20.50;100.00;97995.56;5051808;28;20178;-56
2023/06/27 04:12:53;;;;;;;4.75;3.38;;;;;;;20.75;100.00;98022.47;5051470;28;20204;-56
2023/06/27 04:15:18;;;;;;;5.07;4.57;;;;;;;20.82;100.00;98018.13;5051396;28;20181;-56
2023/06/27 04:17:45;;;;;;;9.50;5.68;;;;;;;20.94;100.00;98014.09;5036685;28;20189;-57
2023/06/27 04:20:11;;;;;;;9.43;4.68;;;;;;;20.99;100.00;97998.59;5031673;28;20193;-56
2023/06/27 04:22:37;;;;;;;7.57;3.65;;;;;;;21.16;100.00;98014.03;5031649;28;20806;-57
2023/06/27 04:25:03;;;;;;;6.72;3.72;;;;;;;21.34;100.00;98018.94;5031626;28;20192;-57
2023/06/27 04:27:28;;;;;;;5.47;3.50;;;;;;;21.42;100.00;98027.56;5030793;28;20208;-56
2023/06/27 04:29:53;;;;;;;3.95;3.25;;;;;;;21.40;100.00;98023.47;5031530;28;20292;-56
2023/06/27 04:32:19;;;;;;;6.90;3.20;;;;;;;21.26;100.00;97990.91;5031765;28;20305;-56
2023/06/27 04:34:44;;;;;;;4.85;3.17;;;;;;;21.34;100.00;98017.09;5031423;28;20699;-56
2023/06/27 04:37:10;;;;;;;3.67;3.00;;;;;;;21.26;100.00;98001.41;5031387;28;20255;-56
2023/06/27 04:39:35;;;;;;;5.35;3.45;;;;;;;21.40;100.00;98023.47;5031360;28;20635;-56
2023/06/27 04:42:01;;;;;;;3.58;3.28;;;;;;;21.24;100.00;97997.34;5031329;28;20692;-56
2023/06/27 04:44:27;;;;;;;4.95;3.15;;;;;;;21.40;100.00;98019.00;5046098;28;20189;-56
2023/06/27 04:46:52;;;;;;;3.50;2.88;;;;;;;21.36;100.00;97991.44;5037913;28;20267;-56
2023/06/27 04:49:17;;;;;;;3.53;3.33;;;;;;;21.64;100.00;98021.38;5033251;28;20177;-57
2023/06/27 04:51:43;;;;;;;4.45;3.42;;;;;;;21.75;100.00;98026.22;5033273;28;20181;-56
2023/06/27 04:54:08;;;;;;;4.78;3.13;;;;;;;21.84;100.00;98019.81;5050820;28;20185;-56
2023/06/27 04:56:34;;;;;;;5.40;3.22;;;;;;;21.86;100.00;98025.72;5050909;28;20209;-56
2023/06/27 04:59:00;;;;;;;8.15;3.15;;;;;;;21.96;100.00;98017.56;5050963;28;20192;-57
2023/06/27 05:01:25;;;;;;;3.50;3.20;;;;;;;22.27;100.00;98047.06;5050938;28;20231;-57
2023/06/27 05:03:52;;;;;;;3.65;3.30;;;;;;;22.19;100.00;98020.81;5050618;28;20208;-57
2023/06/27 05:06:18;;;;;;;4.55;3.90;;;;;;;22.29;100.00;98032.72;5050273;28;20193;-57
2023/06/27 05:08:44;;;;;;;6.28;4.00;;;;;;;22.38;100.00;98036.03;5050485;28;20189;-57
2023/06/27 05:11:10;;;;;;;6.63;4.63;;;;;;;22.51;100.00;98057.28;5050484;28;20676;-56
2023/06/27 05:13:35;;;;;;;12.27;5.25;;;;;;;22.66;100.00;98050.13;5050348;28;20217;-57
2023/06/27 05:16:00;;;;;;;7.05;5.25;;;;;;;22.78;100.00;98053.91;5050308;28;20211;-57
2023/06/27 05:18:26;;;;;;;8.70;4.95;;;;;;;22.98;100.00;98057.50;5050394;28;20690;-57
2023/06/27 05:20:52;;;;;;;6.85;4.18;;;;;;;23.19;100.00;98068.06;5050222;28;20192;-57
2023/06/27 05:23:18;;;;;;;5.45;4.03;;;;;;;23.12;100.00;98052.13;5050215;28;20602;-57
2023/06/27 05:25:44;;;;;;;8.13;5.38;;;;;;;23.26;100.00;98064.44;5036708;28;20251;-57
2023/06/27 05:28:10;;;;;;;9.38;5.90;;;;;;;23.30;100.00;98057.78;5032719;28;20544;-56
2023/06/27 05:30:35;;;;;;;9.10;6.20;;;;;;;23.39;100.00;98063.72;5032664;28;20301;-56
2023/06/27 05:33:04;;;;;;;8.95;5.97;;;;;;;23.35;100.00;98042.16;5032611;28;20174;-57
2023/06/27 05:35:29;;;;;;;9.95;6.03;;;;;;;23.54;100.00;98067.09;5032425;28;20169;-57
2023/06/27 05:37:54;;;;;;;11.18;5.60;;;;;;;23.59;100.00;98065.47;5035300;28;20180;-57
2023/06/27 05:40:20;;;;;;;12.23;6.43;;;;;;;23.70;100.00;98067.56;5051969;28;20188;-57
2023/06/27 05:42:45;;;;;;;7.57;5.70;;;;;;;23.68;100.00;98054.53;5052528;28;20170;-57
2023/06/27 05:45:11;;;;;;;6.82;4.10;;;;;;;23.71;100.00;98068.41;5052444;28;20180;-57
2023/06/27 05:47:36;;;;;;;8.88;5.07;;;;;;;23.59;100.00;98046.97;5052654;28;20177;-56
2023/06/27 05:50:02;;;;;;;7.75;6.07;;;;;;;23.85;100.00;98071.69;5029868;28;20186;-56
2023/06/27 05:52:29;;;;;;;8.60;5.32;;;;;;;23.88;100.00;98075.03;5029976;28;20212;-57
2023/06/27 05:54:55;;;;;;;6.35;4.68;;;;;;;23.92;100.00;98071.78;5029907;28;20188;-56
2023/06/27 05:57:20;;;;;;;3.80;3.22;;;;;;;23.83;100.00;98065.81;5029897;28;20218;-56
2023/06/27 05:59:45;;;;;;;3.35;3.10;;;;;;;23.81;100.00;98065.16;5029709;28;20193;-56
2023/06/27 06:02:11;;;;;;;4.78;2.90;;;;;;;23.79;100.00;98072.50;5029607;28;20616;-57
2023/06/27 06:04:36;;;;;;;5.18;3.08;;;;;;;23.74;100.00;98061.69;5029530;28;20228;-57
2023/06/27 06:07:03;;;;;;;6.95;3.40;;;;;;;23.77;100.00;98073.69;5029857;28;20195;-57
2023/06/27 06:09:30;;;;;;;5.57;3.00;;;;;;;23.79;100.00;98075.13;5029566;28;20205;-57
2023/06/27 06:11:56;;;;;;;4.63;4.18;;;;;;;23.83;100.00;98089.59;5009459;28;20194;-57
2023/06/27 06:14:22;;;;;;;7.78;4.78;;;;;;;23.83;100.00;98071.09;5009623;28;20688;-57
2023/06/27 06:16:48;;;;;;;8.93;5.05;;;;;;;23.95;100.00;98068.72;5009626;28;20218;-57
2023/06/27 06:19:13;;;;;;;5.95;4.85;;;;;;;24.16;100.00;98084.47;5009601;28;20187;-57
2023/06/27 06:21:38;;;;;;;6.68;4.50;;;;;;;24.29;100.00;98085.34;5009619;28;20281;-57
2023/06/27 06:24:04;;;;;;;7.32;5.90;;;;;;;24.39;100.00;98080.47;5009567;28;20695;-57
2023/06/27 06:26:30;;;;;;;9.70;5.72;;;;;;;24.58;100.00;98088.72;5009564;28;20198;-57
2023/06/27 06:28:55;;;;;;;10.85;5.50;;;;;;;24.65;100.00;98079.75;5009774;28;20170;-57
2023/06/27 06:31:22;;;;;;;16.13;5.88;;;;;;;24.81;100.00;98092.59;5022636;28;20256;-57
2023/06/27 06:33:48;;;;;;;10.15;5.60;;;;;;;24.78;100.00;98085.09;5029459;28;20181;-57
2023/06/27 06:36:14;;;;;;;14.40;5.55;;;;;;;24.83;100.00;98086.09;5029340;28;20309;-57
2023/06/27 06:38:40;;;;;;;8.15;5.57;;;;;;;24.91;100.00;98082.44;5029400;28;20701;-57
2023/06/27 06:41:05;;;;;;;6.82;4.85;;;;;;;25.01;100.00;98086.31;5029416;28;20184;-57
2023/06/27 06:43:30;;;;;;;7.00;5.22;;;;;;;24.91;100.00;98053.31;5043228;28;20193;-57
2023/06/27 06:45:56;;;;;;;8.27;5.45;;;;;;;25.13;100.00;98086.53;5049270;28;20189;-57
2023/06/27 06:48:23;;;;;;;8.75;5.10;;;;;;;25.07;100.00;98066.94;5049464;28;20169;-58
2023/06/27 06:50:50;;;;;;;6.50;4.65;;;;;;;25.20;100.00;98090.78;5054205;28;20173;-58
2023/06/27 06:53:16;;;;;;;7.80;5.40;;;;;;;25.12;100.00;98064.50;5055702;28;20181;-58
2023/06/27 06:55:41;;;;;;;11.00;5.47;;;;;;;25.29;100.00;98072.88;5055603;28;20555;-58
2023/06/27 06:58:07;;;;;;;11.38;5.45;;;;;;;25.30;100.00;98058.63;5033123;28;20564;-58
2023/06/27 07:00:32;;;;;;;12.57;5.50;;;;;;;25.25;100.00;98045.97;5033268;28;20435;-58
2023/06/27 07:02:58;;;;;;;10.25;5.40;;;;;;;25.39;100.00;98065.31;5031461;28;20762;-58
2023/06/27 07:05:23;;;;;;;7.38;5.32;;;;;;;25.46;100.00;98077.53;5033020;28;20185;-58
2023/06/27 07:07:49;;;;;;;7.80;5.88;;;;;;;25.53;100.00;98075.69;5033135;28;20731;-58
2023/06/27 07:10:15;;;;;;;6.28;5.22;;;;;;;25.62;100.00;98077.13;5032923;28;20184;-58
2023/06/27 07:12:40;;;;;;;9.32;5.43;;;;;;;25.60;100.00;98065.88;5032821;28;20185;-57
2023/06/27 07:15:07;;;;;;;9.25;5.50;;;;;;;25.70;100.00;98074.22;5032920;28;20173;-58
2023/06/27 07:17:32;;;;;;;10.10;6.07;;;;;;;25.62;100.00;98052.44;5012743;28;20221;-58
2023/06/27 07:19:58;;;;;;;11.60;6.95;;;;;;;25.77;100.00;98077.66;5011908;28;20191;-58
2023/06/27 07:22:24;;;;;;;8.23;5.65;;;;;;;25.84;100.00;98082.97;5012355;28;20198;-59
2023/06/27 07:24:49;;;;;;;8.60;5.63;;;;;;;25.81;100.00;98073.59;5013312;28;20182;-58
2023/06/27 07:27:15;;;;;;;6.57;5.35;;;;;;;25.76;100.00;98057.50;5013024;28;20199;-56
2023/06/27 07:29:40;;;;;;;14.98;6.32;;;;;;;25.82;100.00;98069.91;5041279;28;20209;-56
2023/06/27 07:32:07;;;;;;;11.77;5.10;;;;;;;25.92;100.00;98075.63;5052523;28;20272;-57
2023/06/27 07:34:33;;;;;;;5.97;5.10;;;;;;;25.91;100.00;98074.00;5032339;28;20182;-57
2023/06/27 07:36:59;;;;;;;10.30;6.18;;;;;;;26.00;100.00;98077.22;5052142;28;20591;-58
2023/06/27 07:39:24;;;;;;;7.18;5.95;;;;;;;26.10;100.00;98078.41;5052400;28;20181;-57
2023/06/27 07:41:50;;;;;;;7.25;5.57;;;;;;;26.14;100.00;98082.28;5032223;28;20226;-57
2023/06/27 07:44:15;;;;;;;11.25;5.97;;;;;;;26.22;100.00;98082.03;5032403;28;20190;-57
2023/06/27 07:46:41;;;;;;;9.40;6.25;;;;;;;26.08;100.00;98053.13;5032081;28;20753;-57
2023/06/27 07:49:07;;;;;;;9.18;5.90;;;;;;;26.24;100.00;98074.66;5032291;28;20186;-57
2023/06/27 07:51:33;;;;;;;9.35;6.15;;;;;;;26.27;100.00;98074.25;5032111;28;20200;-57
2023/06/27 07:54:00;;;;;;;8.90;5.85;;;;;;;26.29;100.00;98060.78;5030447;28;20186;-57
2023/06/27 07:56:25;;;;;;;9.07;6.20;;;;;;;26.32;100.00;98065.66;5012379;28;20285;-57
2023/06/27 07:58:51;;;;;;;9.93;6.03;;;;;;;26.44;100.00;98069.25;5012390;28;20174;-57
2023/06/27 08:01:16;;;;;;;6.75;5.75;;;;;;;26.34;100.00;98051.16;5011123;28;20649;-57
2023/06/27 08:03:42;;;;;;;8.60;5.03;;;;;;;26.52;100.00;98075.13;5011756;28;20194;-57
2023/06/27 08:06:07;;;;;;;6.63;4.90;;;;;;;26.57;100.00;98077.16;5012189;28;20195;-57
2023/06/27 08:08:33;;;;;;;6.55;5.10;;;;;;;26.51;100.00;98068.19;4997667;28;20282;-57
2023/06/27 08:10:58;;;;;;;9.68;6.40;;;;;;;26.48;100.00;98041.25;5031712;28;20217;-57
2023/06/27 08:13:24;;;;;;;9.02;5.28;;;;;;;26.59;100.00;98067.97;5046353;28;20212;-57
2023/06/27 08:15:50;;;;;;;7.25;5.45;;;;;;;26.65;100.00;98066.31;5051702;28;20248;-57
2023/06/27 08:18:16;;;;;;;5.35;4.85;;;;;;;26.69;100.00;98068.31;5046346;28;20615;-57
2023/06/27 08:20:41;;;;;;;7.93;5.40;;;;;;;26.72;100.00;98062.59;5051884;28;20192;-57
2023/06/27 08:23:07;;;;;;;5.80;4.97;;;;;;;26.79;100.00;98067.81;5051551;28;20177;-57
2023/06/27 08:25:33;;;;;;;7.00;5.40;;;;;;;26.75;90.96;98053.34;5051480;28;20317;-57
2023/06/27 08:27:58;;;;;;;8.07;5.63;;;;;;;26.95;85.76;98078.72;5051526;28;20347;-57
2023/06/27 08:30:23;;;;;;;8.43;4.95;;;;;;;26.95;83.44;98073.41;5051478;28;20751;-57
2023/06/27 08:32:49;;;;;;;6.93;4.90;;;;;;;26.91;82.17;98074.91;5051455;28;20715;-57
2023/06/27 08:35:15;;;;;;;6.70;4.57;;;;;;;26.97;83.97;98076.69;5036853;28;20192;-57
2023/06/27 08:37:40;;;;;;;13.73;5.20;;;;;;;26.96;83.98;98059.13;5031363;28;20255;-57
2023/06/27 08:40:09;;;;;;;9.68;5.35;;;;;;;27.00;82.55;98065.63;5031395;28;20182;-57
2023/06/27 08:42:34;;;;;;;6.57;4.75;;;;;;;27.00;82.23;98070.91;5031313;28;20194;-57
2023/06/27 08:44:59;;;;;;;5.15;4.63;;;;;;;26.99;82.60;98060.53;5031600;28;20665;-57
2023/06/27 08:47:29;;;;;;;6.85;4.10;;;;;;;27.11;78.67;98072.88;5031361;28;20185;-57
2023/06/27 08:50:03;;;;;;;5.68;5.18;;;;;;;27.02;79.87;98052.94;5048219;28;20194;-57
2023/06/27 08:52:32;;;;;;;5.28;4.78;;;;;;;27.15;80.86;98062.63;5053486;28;20191;-57
2023/06/27 08:54:58;;;;;;;7.25;4.32;;;;;;;27.07;81.32;98055.78;5053435;28;20228;-57
2023/06/27 08:57:29;;;;;;;10.00;5.10;;;;;;;27.19;80.10;98067.34;5053415;28;20294;-57
2023/06/27 08:59:57;;;;;;;7.32;4.78;;;;;;;27.23;80.16;98065.06;5053385;28;20180;-57
2023/06/27 09:02:23;;;;;;;5.30;4.55;;;;;;;27.21;79.33;98053.81;5053081;28;20323;-57
2023/06/27 09:04:50;;;;;;;4.95;4.47;;;;;;;27.26;74.40;98054.81;5052926;28;20192;-57
2023/06/27 09:07:15;;;;;;;5.47;4.85;;;;;;;27.32;71.68;98043.28;5053186;28;20677;-57
2023/06/27 09:09:41;;;;;;;5.60;5.07;;;;;;;27.30;72.14;98040.03;5053185;28;20173;-57
2023/06/27 09:12:07;;;;;;;6.28;4.40;;;;;;;27.41;68.97;98062.44;5053076;28;20184;-57
2023/06/27 09:14:33;;;;;;;8.50;4.25;;;;;;;27.25;68.62;98042.56;5052814;28;20177;-57
2023/06/27 09:16:59;;;;;;;4.60;4.20;;;;;;;27.33;71.13;98042.25;5052973;28;20197;-57
2023/06/27 09:19:24;;;;;;;4.85;4.15;;;;;;;27.36;68.23;98033.03;5053025;28;20231;-57
2023/06/27 09:21:50;;;;;;;12.57;4.70;;;;;;;27.53;71.18;98055.34;5052901;28;20189;-57
2023/06/27 09:24:22;;;;;;;5.03;4.47;;;;;;;27.57;72.79;98054.69;5052628;28;20184;-57
2023/06/27 09:26:48;;;;;;;5.50;4.45;;;;;;;27.55;73.34;98048.78;5052901;28;20238;-57
2023/06/27 09:29:13;;;;;;;5.05;4.53;;;;;;;27.48;70.65;98024.13;5053018;28;20177;-57
2023/06/27 09:31:38;;;;;;;6.72;4.75;;;;;;;27.70;71.00;98049.22;5030209;28;20185;-57
2023/06/27 09:34:05;;;;;;;6.85;4.50;;;;;;;27.83;69.77;98049.13;5030379;28;20684;-58
2023/06/27 09:36:37;;;;;;;5.75;3.35;;;;;;;27.86;61.19;98050.53;5030019;28;20216;-57
2023/06/27 09:39:05;;;;;;;4.35;3.80;;;;;;;27.88;63.23;98051.91;5030212;28;20281;-57
2023/06/27 09:41:44;;;;;;;6.43;4.15;;;;;;;27.89;62.20;98047.41;5030171;28;20688;-57
2023/06/27 09:44:21;;;;;;;7.70;4.03;;;;;;;27.92;64.20;98050.44;5030265;28;20305;-57
2023/06/27 09:46:48;;;;;;;4.30;3.58;;;;;;;27.81;64.75;98021.91;5030177;28;20219;-57
2023/06/27 09:49:14;;;;;;;4.68;4.28;;;;;;;27.97;66.71;98050.56;5030377;28;20254;-57
2023/06/27 09:51:43;;;;;;;5.90;4.03;;;;;;;28.00;67.32;98050.16;5030055;28;20684;-57
2023/06/27 09:54:11;;;;;;;4.65;4.25;;;;;;;28.05;66.85;98047.59;5030065;28;20185;-57
2023/06/27 09:56:37;;;;;;;4.28;3.92;;;;;;;27.88;66.66;98025.31;5029839;28;20237;-57
2023/06/27 09:59:12;;;;;;;5.25;3.83;;;;;;;27.96;66.75;98030.34;5029988;28;20772;-57
2023/06/27 10:01:38;;;;;;;6.68;4.28;;;;;;;28.20;65.18;98044.53;5029896;28;20189;-57
2023/06/27 10:04:05;;;;;;;5.45;3.85;;;;;;;28.26;63.95;98046.31;5029589;28;20692;-57
2023/06/27 10:06:31;;;;;;;6.07;4.25;;;;;;;28.48;62.09;98050.97;5045978;28;20272;-57
2023/06/27 10:08:57;;;;;;;5.57;3.42;;;;;;;28.47;61.86;98032.53;5027619;28;20263;-57
2023/06/27 10:11:23;;;;;;;6.00;3.63;;;;;;;28.60;59.99;98035.00;5049680;28;20208;-57
2023/06/27 10:13:50;;;;;;;5.35;3.75;;;;;;;28.83;60.30;98045.72;5049617;28;20188;-57
2023/06/27 10:16:17;;;;;;;5.10;4.10;;;;;;;28.81;59.47;98027.28;5049479;28;20702;-57
2023/06/27 10:18:42;;;;;;;7.78;4.03;;;;;;;28.92;57.91;98026.50;5029378;28;20193;-57
2023/06/27 10:21:09;;;;;;;4.07;3.67;;;;;;;29.06;58.56;98051.94;5029615;28;20186;-57
2023/06/27 10:23:37;;;;;;;6.10;3.65;;;;;;;28.98;56.93;98025.59;5029498;28;20197;-57
2023/06/27 10:26:03;;;;;;;4.25;3.30;;;;;;;29.13;57.70;98020.63;5028836;28;20259;-57
2023/06/27 10:28:32;;;;;;;5.43;3.20;;;;;;;29.31;56.60;98044.50;5029465;28;20229;-57
2023/06/27 10:30:58;;;;;;;4.55;3.45;;;;;;;29.28;57.36;98042.31;5029502;28;20268;-57
2023/06/27 10:33:28;;;;;;;4.82;3.25;;;;;;;29.36;57.62;98038.47;5029506;28;20746;-57
2023/06/27 10:36:05;;;;;;;4.45;3.22;;;;;;;29.31;58.47;98041.84;5029331;28;20216;-57
2023/06/27 10:38:40;;;;;;;5.68;3.60;;;;;;;29.02;57.64;98018.78;5029379;28;20197;-57
2023/06/27 10:41:10;;;;;;;3.95;3.55;;;;;;;28.81;56.96;98013.97;5029424;28;20185;-57
2023/06/27 10:43:49;;;;;;;4.00;3.63;;;;;;;28.88;59.15;98024.53;5029363;28;20190;-57
2023/06/27 10:46:26;;;;;;;4.05;3.60;;;;;;;28.90;56.72;98001.94;5029398;28;20232;-57
2023/06/27 10:49:01;;;;;;;5.15;3.28;;;;;;;29.23;55.15;98012.88;5032806;28;20685;-57
2023/06/27 10:51:41;;;;;;;6.40;3.90;;;;;;;29.37;54.31;97992.94;5051701;28;20184;-57
2023/06/27 10:54:07;;;;;;;5.00;3.33;;;;;;;29.85;53.90;98017.44;5049591;28;20287;-57
2023/06/27 10:56:36;;;;;;;3.35;3.15;;;;;;;30.03;53.29;98003.13;5051563;28;20291;-57
2023/06/27 10:59:04;;;;;;;7.15;3.38;;;;;;;30.34;52.44;98021.34;5052216;28;20199;-57
2023/06/27 11:01:30;;;;;;;3.53;3.13;;;;;;;30.49;50.33;98010.94;5051480;28;20176;-57
2023/06/27 11:03:59;;;;;;;3.58;3.28;;;;;;;30.80;50.67;98021.94;5051239;28;20235;-57
2023/06/27 11:06:45;;;;;;;3.72;2.95;;;;;;;31.04;49.68;98018.06;5051656;28;20205;-57
2023/06/27 11:09:14;;;;;;;3.55;3.25;;;;;;;30.89;47.82;97999.09;5051542;28;20216;-57
2023/06/27 11:11:39;;;;;;;4.50;3.13;;;;;;;31.12;48.89;98019.50;5051518;28;20238;-57
2023/06/27 11:14:06;;;;;;;4.53;3.38;;;;;;;31.19;46.54;97999.59;5068967;28;20625;-57
2023/06/27 11:16:34;;;;;;;4.20;3.17;;;;;;;31.29;45.84;98018.47;5068937;28;20215;-57
2023/06/27 11:19:00;;;;;;;4.05;3.67;;;;;;;31.14;45.51;97998.69;5068970;28;20220;-58
2023/06/27 11:21:25;;;;;;;3.70;3.42;;;;;;;31.17;45.97;98001.66;5069259;28;20208;-57
2023/06/27 11:23:55;;;;;;;5.15;3.80;;;;;;;31.09;46.42;97998.59;5068925;28;20700;-58